RYR7722 EGKK-EICK
Flight info
| Callsign | RYR7722 |
|---|---|
| Flight time | 1h 6m |
| Altitude | 34000 |
| Route | NOVMA L620 SAM N19 ADKIK DCT PEWBI DCT MOPAT DCT ERTER ERTER1R |
| Aircraft | B738/M-SDE2E3FGHIRWXY/LB1 |
Departure
| Time | 2026-04-15 05:26 |
|---|---|
| Airport | London Gatwick Airport (EGKK) |
Arrival
| Time | 2026-04-15 06:32 |
|---|---|
| Airport | Cork International Airport (EICK) |
| Time | Latitude | Longitude | Altitude | Speed | Heading |
|---|---|---|---|---|---|
| 2026-04-15 05:25 | 51.10284 | -0.47192 | 5520 ft | 246 kts | 242° |
| 2026-04-15 05:26 | 51.09476 | -0.49645 | 6220 ft | 255 kts | 237° |
| 2026-04-15 05:26 | 51.08662 | -0.52183 | 6938 ft | 260 kts | 240° |
| 2026-04-15 05:26 | 51.07850 | -0.54746 | 7818 ft | 259 kts | 239° |
| 2026-04-15 05:26 | 51.07026 | -0.57292 | 8643 ft | 259 kts | 239° |
| 2026-04-15 05:27 | 51.06207 | -0.59878 | 9474 ft | 262 kts | 240° |
| 2026-04-15 05:27 | 51.05411 | -0.62492 | 10247 ft | 266 kts | 244° |
| 2026-04-15 05:27 | 51.04888 | -0.65442 | 10533 ft | 290 kts | 255° |
| 2026-04-15 05:27 | 51.04503 | -0.68676 | 10759 ft | 311 kts | 256° |
| 2026-04-15 05:28 | 51.04088 | -0.72152 | 11323 ft | 320 kts | 255° |
| 2026-04-15 05:28 | 51.03653 | -0.75639 | 12040 ft | 323 kts | 256° |
| 2026-04-15 05:28 | 51.03203 | -0.79097 | 12807 ft | 325 kts | 255° |
| 2026-04-15 05:28 | 51.02728 | -0.82638 | 13558 ft | 329 kts | 255° |
| 2026-04-15 05:29 | 51.02243 | -0.86209 | 14263 ft | 334 kts | 256° |
| 2026-04-15 05:29 | 51.01750 | -0.89841 | 14967 ft | 337 kts | 256° |
| 2026-04-15 05:29 | 51.01242 | -0.93506 | 15701 ft | 340 kts | 255° |
| 2026-04-15 05:29 | 51.00698 | -0.97174 | 16485 ft | 342 kts | 254° |
| 2026-04-15 05:30 | 51.00146 | -1.00867 | 17229 ft | 345 kts | 254° |
| 2026-04-15 05:30 | 50.99622 | -1.04612 | 17875 ft | 351 kts | 255° |
| 2026-04-15 05:30 | 50.99102 | -1.08429 | 18499 ft | 356 kts | 255° |
| 2026-04-15 05:30 | 50.98578 | -1.12283 | 19119 ft | 359 kts | 255° |
| 2026-04-15 05:31 | 50.98048 | -1.16155 | 19747 ft | 361 kts | 255° |
| 2026-04-15 05:31 | 50.97509 | -1.20066 | 20384 ft | 364 kts | 255° |
| 2026-04-15 05:31 | 50.96964 | -1.24002 | 20980 ft | 367 kts | 255° |
| 2026-04-15 05:31 | 50.96413 | -1.27967 | 21570 ft | 370 kts | 255° |
| 2026-04-15 05:32 | 50.95854 | -1.31964 | 22155 ft | 373 kts | 255° |
| 2026-04-15 05:32 | 50.95302 | -1.35941 | 22728 ft | 376 kts | 256° |
| 2026-04-15 05:32 | 50.94764 | -1.40070 | 23301 ft | 379 kts | 256° |
| 2026-04-15 05:32 | 50.94251 | -1.44133 | 23880 ft | 380 kts | 256° |
| 2026-04-15 05:33 | 50.93730 | -1.48292 | 24464 ft | 379 kts | 255° |
| 2026-04-15 05:33 | 50.93216 | -1.52348 | 24903 ft | 383 kts | 255° |
| 2026-04-15 05:33 | 50.92685 | -1.56509 | 25302 ft | 386 kts | 255° |
| 2026-04-15 05:33 | 50.92147 | -1.60703 | 25734 ft | 389 kts | 255° |
| 2026-04-15 05:34 | 50.91606 | -1.64907 | 26180 ft | 391 kts | 255° |
| 2026-04-15 05:34 | 50.91058 | -1.69155 | 26621 ft | 393 kts | 255° |
| 2026-04-15 05:34 | 50.90505 | -1.73419 | 27043 ft | 396 kts | 255° |
| 2026-04-15 05:34 | 50.89947 | -1.77709 | 27449 ft | 399 kts | 255° |
| 2026-04-15 05:35 | 50.89384 | -1.82021 | 27851 ft | 401 kts | 255° |
| 2026-04-15 05:35 | 50.88815 | -1.86368 | 28238 ft | 404 kts | 255° |
| 2026-04-15 05:35 | 50.88243 | -1.90733 | 28697 ft | 405 kts | 254° |
| 2026-04-15 05:35 | 50.87670 | -1.95088 | 29304 ft | 402 kts | 254° |
| 2026-04-15 05:36 | 50.87108 | -1.99342 | 29911 ft | 399 kts | 254° |
| 2026-04-15 05:36 | 50.86542 | -2.03628 | 30419 ft | 397 kts | 254° |
| 2026-04-15 05:36 | 50.85976 | -2.07904 | 30838 ft | 396 kts | 254° |
| 2026-04-15 05:36 | 50.85411 | -2.12165 | 31257 ft | 395 kts | 254° |
| 2026-04-15 05:37 | 50.84847 | -2.16410 | 31716 ft | 393 kts | 254° |
| 2026-04-15 05:37 | 50.84286 | -2.20628 | 32166 ft | 391 kts | 254° |
| 2026-04-15 05:37 | 50.83724 | -2.24829 | 32582 ft | 390 kts | 254° |
| 2026-04-15 05:37 | 50.83161 | -2.29029 | 32967 ft | 389 kts | 254° |
| 2026-04-15 05:38 | 50.82600 | -2.33208 | 33377 ft | 388 kts | 254° |
| 2026-04-15 05:38 | 50.82044 | -2.37337 | 33803 ft | 387 kts | 253° |
| 2026-04-15 05:38 | 50.81481 | -2.41506 | 34000 ft | 390 kts | 253° |
| 2026-04-15 05:38 | 50.80906 | -2.45733 | 34007 ft | 392 kts | 253° |
| 2026-04-15 05:39 | 50.80413 | -2.54330 | 34009 ft | 395 kts | 267° |
| 2026-04-15 05:39 | 50.81440 | -2.62910 | 34000 ft | 404 kts | 281° |
| 2026-04-15 05:40 | 50.83296 | -2.71311 | 34011 ft | 404 kts | 282° |
| 2026-04-15 05:40 | 50.85168 | -2.79646 | 34015 ft | 405 kts | 282° |
| 2026-04-15 05:41 | 50.87076 | -2.88080 | 34011 ft | 408 kts | 280° |
| 2026-04-15 05:41 | 50.88870 | -2.96577 | 34006 ft | 408 kts | 280° |
| 2026-04-15 05:42 | 50.90703 | -3.05107 | 34015 ft | 409 kts | 280° |
| 2026-04-15 05:42 | 50.92552 | -3.13633 | 34006 ft | 410 kts | 280° |
| 2026-04-15 05:43 | 50.94388 | -3.22153 | 34001 ft | 411 kts | 280° |
| 2026-04-15 05:43 | 50.96223 | -3.30732 | 34038 ft | 411 kts | 279° |
| 2026-04-15 05:44 | 50.98071 | -3.39330 | 34006 ft | 412 kts | 280° |
| 2026-04-15 05:44 | 50.99915 | -3.47929 | 33988 ft | 411 kts | 279° |
| 2026-04-15 05:45 | 51.01711 | -3.56560 | 33983 ft | 411 kts | 278° |
| 2026-04-15 05:45 | 51.03514 | -3.65206 | 33983 ft | 411 kts | 279° |
| 2026-04-15 05:46 | 51.05305 | -3.73792 | 33975 ft | 411 kts | 279° |
| 2026-04-15 05:46 | 51.07101 | -3.82416 | 34004 ft | 411 kts | 278° |
| 2026-04-15 05:47 | 51.08897 | -3.91080 | 33977 ft | 411 kts | 277° |
| 2026-04-15 05:47 | 51.10677 | -3.99699 | 33959 ft | 409 kts | 277° |
| 2026-04-15 05:48 | 51.12447 | -4.08308 | 33952 ft | 408 kts | 277° |
| 2026-04-15 05:48 | 51.13908 | -4.15448 | 33952 ft | 407 kts | 277° |
| 2026-04-15 05:49 | 51.15935 | -4.25395 | 33950 ft | 406 kts | 277° |
| 2026-04-15 05:49 | 51.17672 | -4.33966 | 33952 ft | 407 kts | 277° |
| 2026-04-15 05:50 | 51.19113 | -4.41096 | 33950 ft | 406 kts | 277° |
| 2026-04-15 05:51 | 51.21700 | -4.53964 | 33950 ft | 405 kts | 276° |
| 2026-04-15 05:51 | 51.23414 | -4.62538 | 33931 ft | 405 kts | 276° |
| 2026-04-15 05:52 | 51.25109 | -4.71058 | 33938 ft | 405 kts | 276° |
| 2026-04-15 05:52 | 51.26809 | -4.79641 | 33966 ft | 406 kts | 276° |
| 2026-04-15 05:53 | 51.28512 | -4.88274 | 33935 ft | 408 kts | 276° |
| 2026-04-15 05:53 | 51.30217 | -4.96944 | 33923 ft | 409 kts | 276° |
| 2026-04-15 05:54 | 51.31760 | -5.05640 | 33911 ft | 400 kts | 269° |
| 2026-04-15 05:54 | 51.32625 | -5.14382 | 33910 ft | 397 kts | 267° |
| 2026-04-15 05:55 | 51.33412 | -5.23129 | 33909 ft | 398 kts | 268° |
| 2026-04-15 05:55 | 51.34226 | -5.31902 | 33903 ft | 399 kts | 268° |
| 2026-04-15 05:56 | 51.35053 | -5.40629 | 33894 ft | 399 kts | 268° |
| 2026-04-15 05:56 | 51.35887 | -5.49414 | 33893 ft | 399 kts | 268° |
| 2026-04-15 05:57 | 51.36715 | -5.58191 | 33878 ft | 399 kts | 268° |
| 2026-04-15 05:57 | 51.37538 | -5.66987 | 33876 ft | 399 kts | 268° |
| 2026-04-15 05:58 | 51.38353 | -5.75763 | 33932 ft | 397 kts | 268° |
| 2026-04-15 05:58 | 51.38756 | -5.80081 | 33864 ft | 386 kts | 268° |
| 2026-04-15 05:58 | 51.39144 | -5.84242 | 33865 ft | 380 kts | 267° |
| 2026-04-15 05:58 | 51.39527 | -5.88376 | 33843 ft | 369 kts | 267° |
| 2026-04-15 05:59 | 51.39897 | -5.92364 | 33838 ft | 356 kts | 266° |
| 2026-04-15 05:59 | 51.40251 | -5.96210 | 33826 ft | 343 kts | 266° |
| 2026-04-15 05:59 | 51.40589 | -5.99913 | 33821 ft | 330 kts | 265° |
| 2026-04-15 06:00 | 51.41226 | -6.07117 | 33856 ft | 330 kts | 265° |
| 2026-04-15 06:00 | 51.41867 | -6.14596 | 33840 ft | 343 kts | 266° |
| 2026-04-15 06:00 | 51.42200 | -6.18381 | 33497 ft | 342 kts | 266° |
| 2026-04-15 06:01 | 51.42534 | -6.22209 | 32631 ft | 353 kts | 266° |
| 2026-04-15 06:01 | 51.42872 | -6.26155 | 31746 ft | 366 kts | 266° |
| 2026-04-15 06:01 | 51.43226 | -6.30213 | 30990 ft | 368 kts | 266° |
| 2026-04-15 06:01 | 51.43586 | -6.34261 | 30376 ft | 366 kts | 266° |
| 2026-04-15 06:02 | 51.43943 | -6.38275 | 29825 ft | 362 kts | 266° |
| 2026-04-15 06:02 | 51.44295 | -6.42260 | 29188 ft | 358 kts | 266° |
| 2026-04-15 06:02 | 51.44640 | -6.46202 | 28571 ft | 355 kts | 266° |
| 2026-04-15 06:02 | 51.44977 | -6.50096 | 27978 ft | 351 kts | 266° |
| 2026-04-15 06:03 | 51.45308 | -6.53959 | 27381 ft | 348 kts | 266° |
| 2026-04-15 06:03 | 51.45634 | -6.57805 | 26693 ft | 348 kts | 266° |
| 2026-04-15 06:03 | 51.45959 | -6.61610 | 26295 ft | 341 kts | 266° |
| 2026-04-15 06:03 | 51.46276 | -6.65365 | 25942 ft | 339 kts | 266° |
| 2026-04-15 06:04 | 51.46590 | -6.69113 | 25606 ft | 338 kts | 265° |
| 2026-04-15 06:04 | 51.46902 | -6.72843 | 25272 ft | 337 kts | 265° |
| 2026-04-15 06:04 | 51.47208 | -6.76523 | 24949 ft | 337 kts | 265° |
| 2026-04-15 06:04 | 51.47517 | -6.80255 | 24618 ft | 337 kts | 265° |
| 2026-04-15 06:05 | 51.47825 | -6.83977 | 24288 ft | 336 kts | 265° |
| 2026-04-15 06:05 | 51.48132 | -6.87695 | 23948 ft | 336 kts | 265° |
| 2026-04-15 06:05 | 51.48437 | -6.91406 | 23631 ft | 335 kts | 265° |
| 2026-04-15 06:05 | 51.48741 | -6.95113 | 23272 ft | 335 kts | 265° |
| 2026-04-15 06:06 | 51.49044 | -6.98818 | 22889 ft | 334 kts | 265° |
| 2026-04-15 06:06 | 51.49344 | -7.02498 | 22539 ft | 332 kts | 265° |
| 2026-04-15 06:06 | 51.49642 | -7.06171 | 22199 ft | 330 kts | 265° |
| 2026-04-15 06:06 | 51.49935 | -7.09812 | 21883 ft | 327 kts | 265° |
| 2026-04-15 06:07 | 51.50201 | -7.13440 | 21514 ft | 326 kts | 264° |
| 2026-04-15 06:07 | 51.50448 | -7.17042 | 21175 ft | 324 kts | 264° |
| 2026-04-15 06:07 | 51.50689 | -7.20640 | 20839 ft | 323 kts | 264° |
| 2026-04-15 06:07 | 51.50929 | -7.24223 | 20559 ft | 322 kts | 264° |
| 2026-04-15 06:08 | 51.51168 | -7.27806 | 20187 ft | 323 kts | 264° |
| 2026-04-15 06:08 | 51.51408 | -7.31390 | 19858 ft | 323 kts | 264° |
| 2026-04-15 06:08 | 51.51647 | -7.34968 | 19521 ft | 322 kts | 264° |
| 2026-04-15 06:08 | 51.51886 | -7.38544 | 19188 ft | 322 kts | 264° |
| 2026-04-15 06:09 | 51.52124 | -7.42115 | 18860 ft | 322 kts | 264° |
| 2026-04-15 06:09 | 51.52358 | -7.45645 | 18536 ft | 322 kts | 265° |
| 2026-04-15 06:09 | 51.52594 | -7.49222 | 18204 ft | 322 kts | 265° |
| 2026-04-15 06:09 | 51.52829 | -7.52802 | 17817 ft | 320 kts | 265° |
| 2026-04-15 06:10 | 51.53063 | -7.56343 | 17470 ft | 318 kts | 265° |
| 2026-04-15 06:10 | 51.53294 | -7.59876 | 17129 ft | 317 kts | 265° |
| 2026-04-15 06:10 | 51.53522 | -7.63396 | 16800 ft | 316 kts | 265° |
| 2026-04-15 06:10 | 51.53749 | -7.66904 | 16479 ft | 314 kts | 265° |
| 2026-04-15 06:11 | 51.53973 | -7.70388 | 16164 ft | 313 kts | 265° |
| 2026-04-15 06:11 | 51.54195 | -7.73847 | 15876 ft | 308 kts | 265° |
| 2026-04-15 06:11 | 51.54414 | -7.77235 | 15526 ft | 300 kts | 265° |
| 2026-04-15 06:11 | 51.54623 | -7.80485 | 15221 ft | 293 kts | 265° |
| 2026-04-15 06:12 | 51.54826 | -7.83697 | 14930 ft | 285 kts | 265° |
| 2026-04-15 06:12 | 51.55023 | -7.86841 | 14623 ft | 279 kts | 265° |
| 2026-04-15 06:12 | 51.55214 | -7.89918 | 14340 ft | 274 kts | 265° |
| 2026-04-15 06:12 | 51.55402 | -7.92972 | 14061 ft | 275 kts | 265° |
| 2026-04-15 06:13 | 51.55589 | -7.96042 | 13782 ft | 276 kts | 265° |
| 2026-04-15 06:13 | 51.55778 | -7.99123 | 13491 ft | 277 kts | 265° |
| 2026-04-15 06:13 | 51.55982 | -8.02206 | 13166 ft | 281 kts | 270° |
| 2026-04-15 06:13 | 51.56740 | -8.05215 | 12844 ft | 304 kts | 297° |
| 2026-04-15 06:14 | 51.58332 | -8.07575 | 12596 ft | 322 kts | 323° |
| 2026-04-15 06:14 | 51.60359 | -8.09147 | 12369 ft | 325 kts | 329° |
| 2026-04-15 06:14 | 51.62441 | -8.10594 | 12095 ft | 326 kts | 330° |
| 2026-04-15 06:14 | 51.64524 | -8.12020 | 11834 ft | 324 kts | 330° |
| 2026-04-15 06:15 | 51.66585 | -8.13440 | 11634 ft | 319 kts | 329° |
| 2026-04-15 06:15 | 51.68612 | -8.14855 | 11355 ft | 317 kts | 329° |
| 2026-04-15 06:15 | 51.70626 | -8.16277 | 11063 ft | 315 kts | 329° |
| 2026-04-15 06:15 | 51.72607 | -8.17686 | 10752 ft | 314 kts | 329° |
| 2026-04-15 06:16 | 51.74599 | -8.19109 | 10463 ft | 313 kts | 329° |
| 2026-04-15 06:16 | 51.76589 | -8.20533 | 10175 ft | 313 kts | 329° |
| 2026-04-15 06:16 | 51.78579 | -8.21960 | 9870 ft | 312 kts | 329° |
| 2026-04-15 06:16 | 51.80543 | -8.23365 | 9711 ft | 306 kts | 329° |
| 2026-04-15 06:17 | 51.82491 | -8.24764 | 9379 ft | 306 kts | 329° |
| 2026-04-15 06:17 | 51.84433 | -8.26160 | 9071 ft | 304 kts | 329° |
| 2026-04-15 06:17 | 51.86372 | -8.27556 | 8692 ft | 306 kts | 329° |
| 2026-04-15 06:17 | 51.88311 | -8.28951 | 8399 ft | 304 kts | 329° |
| 2026-04-15 06:18 | 51.90233 | -8.30334 | 8077 ft | 299 kts | 329° |
| 2026-04-15 06:18 | 51.92113 | -8.31686 | 7800 ft | 291 kts | 329° |
| 2026-04-15 06:18 | 51.93947 | -8.33007 | 7527 ft | 287 kts | 329° |
| 2026-04-15 06:18 | 51.95765 | -8.34323 | 7263 ft | 285 kts | 330° |
| 2026-04-15 06:19 | 51.97552 | -8.35617 | 7007 ft | 284 kts | 330° |
| 2026-04-15 06:19 | 51.99352 | -8.36921 | 6751 ft | 283 kts | 330° |
| 2026-04-15 06:19 | 52.01148 | -8.38221 | 6482 ft | 282 kts | 330° |
| 2026-04-15 06:19 | 52.02932 | -8.39514 | 6212 ft | 280 kts | 330° |
| 2026-04-15 06:20 | 52.04700 | -8.40835 | 5938 ft | 277 kts | 324° |
| 2026-04-15 06:20 | 52.06041 | -8.42879 | 5727 ft | 255 kts | 293° |
| 2026-04-15 06:20 | 52.06600 | -8.45501 | 5476 ft | 242 kts | 271° |
| 2026-04-15 06:20 | 52.06580 | -8.48157 | 5266 ft | 229 kts | 252° |
| 2026-04-15 06:21 | 52.06132 | -8.50548 | 5152 ft | 218 kts | 245° |
| 2026-04-15 06:21 | 52.05609 | -8.52843 | 4919 ft | 214 kts | 245° |
| 2026-04-15 06:21 | 52.05093 | -8.55076 | 4654 ft | 207 kts | 245° |
| 2026-04-15 06:21 | 52.04598 | -8.57235 | 4416 ft | 201 kts | 244° |
| 2026-04-15 06:22 | 52.03856 | -8.59040 | 4144 ft | 188 kts | 211° |
| 2026-04-15 06:22 | 52.02597 | -8.59375 | 3992 ft | 191 kts | 172° |
| 2026-04-15 06:22 | 52.01354 | -8.58830 | 3893 ft | 182 kts | 172° |
| 2026-04-15 06:22 | 52.00159 | -8.58372 | 3679 ft | 177 kts | 173° |
| 2026-04-15 06:23 | 51.98994 | -8.57856 | 3466 ft | 170 kts | 169° |
| 2026-04-15 06:23 | 51.97898 | -8.57258 | 3247 ft | 163 kts | 168° |
| 2026-04-15 06:23 | 51.96854 | -8.56650 | 3004 ft | 157 kts | 168° |
| 2026-04-15 06:23 | 51.95814 | -8.56039 | 2801 ft | 160 kts | 168° |
| 2026-04-15 06:24 | 51.94784 | -8.55427 | 2573 ft | 156 kts | 168° |
| 2026-04-15 06:24 | 51.93709 | -8.54839 | 2520 ft | 174 kts | 176° |
| 2026-04-15 06:24 | 51.92577 | -8.55084 | 3474 ft | 161 kts | 210° |
| 2026-04-15 06:24 | 51.91717 | -8.56307 | 4146 ft | 177 kts | 230° |
| 2026-04-15 06:25 | 51.91070 | -8.58128 | 4084 ft | 189 kts | 246° |
| 2026-04-15 06:25 | 51.90920 | -8.60235 | 4107 ft | 200 kts | 276° |
| 2026-04-15 06:25 | 51.91628 | -8.62269 | 4130 ft | 218 kts | 309° |
| 2026-04-15 06:25 | 51.92965 | -8.63467 | 3751 ft | 226 kts | 335° |
| 2026-04-15 06:26 | 51.94479 | -8.64168 | 3223 ft | 225 kts | 338° |
| 2026-04-15 06:26 | 51.95965 | -8.64802 | 3060 ft | 220 kts | 338° |
| 2026-04-15 06:26 | 51.97479 | -8.65442 | 3015 ft | 229 kts | 340° |
| 2026-04-15 06:26 | 51.99102 | -8.65515 | 2983 ft | 242 kts | 13° |
| 2026-04-15 06:27 | 52.00558 | -8.64199 | 2987 ft | 235 kts | 48° |
| 2026-04-15 06:27 | 52.01328 | -8.62067 | 2967 ft | 208 kts | 84° |
| 2026-04-15 06:27 | 52.01229 | -8.59944 | 2986 ft | 181 kts | 125° |
| 2026-04-15 06:27 | 52.00438 | -8.58535 | 2993 ft | 164 kts | 163° |
| 2026-04-15 06:28 | 51.99387 | -8.58039 | 3004 ft | 159 kts | 171° |
| 2026-04-15 06:28 | 51.98336 | -8.57464 | 3006 ft | 160 kts | 169° |
| 2026-04-15 06:28 | 51.97283 | -8.56885 | 3014 ft | 159 kts | 169° |
| 2026-04-15 06:28 | 51.96233 | -8.56282 | 2866 ft | 159 kts | 168° |
| 2026-04-15 06:29 | 51.95190 | -8.55668 | 2649 ft | 157 kts | 168° |
| 2026-04-15 06:29 | 51.94166 | -8.55062 | 2453 ft | 157 kts | 168° |
| 2026-04-15 06:29 | 51.93143 | -8.54456 | 2246 ft | 157 kts | 168° |
| 2026-04-15 06:29 | 51.92124 | -8.53851 | 2028 ft | 153 kts | 168° |
| 2026-04-15 06:30 | 51.91170 | -8.53283 | 1796 ft | 139 kts | 168° |
| 2026-04-15 06:30 | 51.90294 | -8.52764 | 1662 ft | 132 kts | 168° |
| 2026-04-15 06:30 | 51.89423 | -8.52252 | 1463 ft | 134 kts | 168° |
| 2026-04-15 06:30 | 51.88573 | -8.51743 | 1251 ft | 126 kts | 168° |
| 2026-04-15 06:31 | 51.87742 | -8.51256 | 1094 ft | 131 kts | 165° |
| 2026-04-15 06:31 | 51.86865 | -8.50728 | 912 ft | 138 kts | 165° |
| 2026-04-15 06:31 | 51.85992 | -8.50205 | 723 ft | 128 kts | 165° |
| 2026-04-15 06:31 | 51.85183 | -8.49737 | 578 ft | 125 kts | 163° |
| 2026-04-15 06:32 | 51.84376 | -8.49263 | 504 ft | 102 kts | 160° |
| 2026-04-15 06:32 | 51.84058 | -8.49073 | 503 ft | 7 kts | 160° |
| 2026-04-15 06:32 | 51.84016 | -8.49026 | 503 ft | 7 kts | 144° |
| 2026-04-15 06:32 | 51.83990 | -8.49028 | 503 ft | 1 kts | 256° |
| 2026-04-15 06:33 | 51.83995 | -8.49034 | 503 ft | 1 kts | 326° |
| 2026-04-15 06:33 | 51.84009 | -8.49041 | 503 ft | 4 kts | 341° |
| 2026-04-15 06:33 | 51.84048 | -8.49063 | 503 ft | 10 kts | 340° |
| 2026-04-15 06:33 | 51.84157 | -8.49128 | 503 ft | 23 kts | 339° |
| 2026-04-15 06:34 | 51.84293 | -8.49165 | 503 ft | 17 kts | 40° |
| 2026-04-15 06:34 | 51.84348 | -8.49013 | 503 ft | 13 kts | 55° |
| 2026-04-15 06:34 | 51.84430 | -8.49006 | 503 ft | 13 kts | 340° |
| 2026-04-15 06:34 | 51.84513 | -8.49054 | 503 ft | 12 kts | 340° |
| 2026-04-15 06:35 | 51.84566 | -8.49085 | 503 ft | 12 kts | 340° |
| 2026-04-15 06:35 | 51.84643 | -8.49131 | 503 ft | 9 kts | 339° |
| 2026-04-15 06:35 | 51.84675 | -8.49110 | 503 ft | 2 kts | 70° |
| 2026-04-15 06:35 | 51.84680 | -8.49085 | 503 ft | 2 kts | 70° |
| 2026-04-15 06:36 | 51.84684 | -8.49070 | 503 ft | 0 kts | 68° |